KGUS/GUS METAR and TAF weather

Enter ICAO airport designator
Station Type Date Time Source
KGUS METAR 2019/05/23 18:11 UTC NOAA

KGUS 231811Z 26016KT 10SM SCT022 SCT170 SCT200 24/21 A3004 RMK AO2A SLP171 $


Station Type Date Time Source
KGUS Decoded METAR 2019/05/23 18:11 UTC NOAA

Grissom Air Force Base / Peru, IN, United States (KGUS) 40-39N 086-09W
May 23, 2019 - 02:11 PM EDT / 2019.05.23 1811 UTC
Wind: from the W (260 degrees) at 18 MPH (16 KT):0
Visibility: 10 mile(s):0
Sky conditions: partly cloudy
Temperature: 75 F (24 C)
Dew Point: 69 F (21 C)
Relative Humidity: 83%
Pressure (altimeter): 30.04 in. Hg (1017 hPa)
ob: KGUS 231811Z 26016KT 10SM SCT022 SCT170 SCT200 24/21 A3004 RMK AO2A SLP171
cycle: 18

Station Type Date Time Source
KGUS TAF 2019/05/23 11:06 UTC NOAA

TAF KGUS 231100Z 2311/2417 21009KT 9999 OVC100 QNH2992INS
TEMPO 2311/2312 23015G25KT
BECMG 2314/2315 27015G25KT 9999 BKN030 BKN100 QNH2999INS
BECMG 2400/2401 31009KT 9999 SCT100 QNH3006INS
BECMG 2415/2416 VRB06KT 9000 -SHRA BKN020 QNH3012INS TX27/2321Z TN14/2409Z

Example: see airport list